createdAt,value
2023-07-25T00:01:55.592Z,76.16
2023-07-25T00:04:25.111Z,76.22
2023-07-25T00:06:54.950Z,76.84
2023-07-25T00:09:25.080Z,76.94
2023-07-25T00:11:54.911Z,76.94
2023-07-25T00:14:25.047Z,76.76
2023-07-25T00:16:54.897Z,76.76
2023-07-25T00:19:25.116Z,77.07
2023-07-25T00:21:55.256Z,77.07
2023-07-25T00:24:24.866Z,76.71
2023-07-25T00:26:54.734Z,76.50
2023-07-25T00:29:24.896Z,77.84
2023-07-25T00:31:54.456Z,77.84
2023-07-25T00:34:24.284Z,78.21
2023-07-25T00:36:54.115Z,78.20
2023-07-25T00:39:24.119Z,78.43
2023-07-25T00:41:53.953Z,78.98
2023-07-25T00:44:24.112Z,78.52
2023-07-25T00:46:54.208Z,77.54
2023-07-25T00:49:25.031Z,79.06
2023-07-25T00:51:55.227Z,79.06
2023-07-25T00:54:25.403Z,79.75
2023-07-25T00:56:55.621Z,79.95
2023-07-25T00:59:25.771Z,79.75
2023-07-25T01:01:55.759Z,79.75
2023-07-25T01:04:26.751Z,79.50
2023-07-25T01:06:57.143Z,79.93
2023-07-25T01:09:47.387Z,79.41
2023-07-25T01:12:17.433Z,79.60
2023-07-25T01:14:47.710Z,79.89
2023-07-25T01:17:20.880Z,79.89
2023-07-25T01:19:51.765Z,80.63
2023-07-25T01:22:23.608Z,81.37
2023-07-25T01:24:56.143Z,80.82
2023-07-25T01:27:25.991Z,80.82
2023-07-25T01:29:56.136Z,80.03
2023-07-25T01:32:26.047Z,80.03
2023-07-25T01:34:56.185Z,80.04
2023-07-25T01:37:26.089Z,80.75
2023-07-25T01:39:56.254Z,80.49
2023-07-25T01:42:26.076Z,80.65
2023-07-25T01:44:56.258Z,81.20
2023-07-25T01:47:27.506Z,80.83
2023-07-25T01:49:57.759Z,81.12
2023-07-25T01:52:27.741Z,81.12
2023-07-25T01:54:58.048Z,81.29
2023-07-25T01:57:28.044Z,81.63
2023-07-25T01:59:59.657Z,81.94
2023-07-25T02:02:29.647Z,81.91
2023-07-25T02:04:59.926Z,82.15
2023-07-25T02:07:29.866Z,81.52
2023-07-25T02:10:00.146Z,81.24
2023-07-25T02:12:31.798Z,81.83
2023-07-25T02:15:01.993Z,81.92
2023-07-25T02:17:31.901Z,82.57
2023-07-25T02:20:02.114Z,81.67
2023-07-25T02:22:31.657Z,81.67
2023-07-25T02:25:01.868Z,82.10
2023-07-25T02:27:31.424Z,81.94
2023-07-25T02:30:01.626Z,81.76
2023-07-25T02:32:31.809Z,81.76
2023-07-25T02:35:01.952Z,82.02
2023-07-25T02:37:32.335Z,81.77
2023-07-25T02:40:03.164Z,82.21
2023-07-25T02:42:33.293Z,81.64
2023-07-25T02:45:03.513Z,82.59
2023-07-25T02:47:33.679Z,82.18
2023-07-25T02:50:03.818Z,82.49
2023-07-25T02:52:33.605Z,81.33
2023-07-25T02:55:04.521Z,82.61
2023-07-25T02:57:34.373Z,82.63
2023-07-25T03:00:06.652Z,82.82
2023-07-25T03:02:36.246Z,82.96
2023-07-25T03:05:08.101Z,82.95
2023-07-25T03:07:38.407Z,83.44
2023-07-25T03:10:09.145Z,83.34
2023-07-25T03:12:38.979Z,82.49
2023-07-25T03:15:08.897Z,82.45
2023-07-25T03:17:39.111Z,82.40
2023-07-25T03:20:09.610Z,82.80
2023-07-25T03:22:39.454Z,82.64
2023-07-25T03:25:09.571Z,81.89
2023-07-25T03:27:39.724Z,82.84
2023-07-25T03:30:09.855Z,82.45
2023-07-25T03:32:39.782Z,82.96
2023-07-25T03:35:09.903Z,83.00
2023-07-25T03:37:39.751Z,84.24
2023-07-25T03:40:09.665Z,83.09
2023-07-25T03:42:39.852Z,82.85
2023-07-25T03:45:10.234Z,83.70
2023-07-25T03:47:40.488Z,83.70
2023-07-25T03:50:10.257Z,83.54
2023-07-25T03:52:40.785Z,82.47
2023-07-25T03:55:10.932Z,83.71
2023-07-25T03:57:40.801Z,84.29
2023-07-25T04:00:11.000Z,84.36
2023-07-25T04:02:43.482Z,83.22
2023-07-25T04:05:13.293Z,82.90
2023-07-25T04:07:43.534Z,83.50
2023-07-25T04:10:13.191Z,83.47
2023-07-25T04:12:43.038Z,82.31
2023-07-25T04:15:13.476Z,83.18
2023-07-25T04:17:43.352Z,82.60
2023-07-25T04:20:13.373Z,81.91
2023-07-25T04:22:43.521Z,82.32
2023-07-25T04:25:13.415Z,83.46
2023-07-25T04:27:44.830Z,82.24
2023-07-25T04:30:17.083Z,82.08
2023-07-25T04:32:48.563Z,82.81
2023-07-25T04:35:18.180Z,83.61
2023-07-25T04:37:48.053Z,83.11
2023-07-25T04:40:19.836Z,83.44
2023-07-25T04:42:49.702Z,81.93
2023-07-25T04:45:19.253Z,81.86
2023-07-25T04:47:49.105Z,81.37
2023-07-25T04:50:18.952Z,81.21
2023-07-25T04:52:48.692Z,82.21
2023-07-25T04:55:18.391Z,81.99
2023-07-25T04:57:48.375Z,81.84
2023-07-25T05:00:19.249Z,81.84
2023-07-25T05:02:49.184Z,81.60
2023-07-25T05:05:19.132Z,81.69
2023-07-25T05:07:48.960Z,81.08
2023-07-25T05:10:18.986Z,80.25
2023-07-25T05:12:48.851Z,80.51
2023-07-25T05:15:18.728Z,80.50
2023-07-25T05:17:48.924Z,80.38
2023-07-25T05:20:18.949Z,80.38
2023-07-25T05:22:48.494Z,80.10
2023-07-25T05:25:18.216Z,80.82
2023-07-25T05:27:48.333Z,80.17
2023-07-25T05:30:19.036Z,80.17
2023-07-25T05:32:51.031Z,80.10
2023-07-25T05:35:20.789Z,80.17
2023-07-25T05:37:50.609Z,80.46
2023-07-25T05:40:22.486Z,79.52
2023-07-25T05:42:52.340Z,79.42
2023-07-25T05:45:22.468Z,80.43
2023-07-25T05:47:52.635Z,80.51
2023-07-25T05:50:22.535Z,80.04
2023-07-25T05:52:52.668Z,76.96
2023-07-25T05:55:22.514Z,76.96
2023-07-25T05:57:52.368Z,76.76
2023-07-25T06:00:22.611Z,75.94
2023-07-25T06:02:53.935Z,74.95
2023-07-25T06:05:23.526Z,74.95
2023-07-25T06:10:14.361Z,75.42
2023-07-25T06:12:45.387Z,74.66
2023-07-25T06:15:15.690Z,74.66
2023-07-25T06:17:45.884Z,74.63
2023-07-25T06:22:58.900Z,76.14
2023-07-25T06:25:28.884Z,76.14
2023-07-25T06:27:59.052Z,75.93
2023-07-25T06:30:28.906Z,75.06
2023-07-25T06:32:59.168Z,73.59
2023-07-25T06:35:29.015Z,73.34
2023-07-25T06:37:59.157Z,74.44
2023-07-25T06:40:29.056Z,74.79
2023-07-25T06:42:59.231Z,73.55
2023-07-25T06:45:29.614Z,72.98
2023-07-25T06:47:59.948Z,72.11
2023-07-25T06:50:30.685Z,71.72
2023-07-25T06:53:00.971Z,70.90
2023-07-25T06:55:30.825Z,72.38
2023-07-25T06:58:01.037Z,71.74
2023-07-25T07:00:31.129Z,72.17
2023-07-25T07:03:01.370Z,71.36
2023-07-25T07:05:32.886Z,71.02
2023-07-25T07:08:03.245Z,68.81
2023-07-25T07:10:34.724Z,68.81
2023-07-25T07:13:04.948Z,66.71
2023-07-25T07:15:34.810Z,66.13
2023-07-25T07:18:05.051Z,65.03
2023-07-25T07:20:34.933Z,64.77
2023-07-25T07:23:04.914Z,62.00
2023-07-25T07:25:36.414Z,62.00
2023-07-25T07:28:06.894Z,61.15
2023-07-25T07:30:36.763Z,61.15
2023-07-25T07:33:06.608Z,60.85
2023-07-25T07:35:36.507Z,59.93
2023-07-25T07:38:06.337Z,57.41
2023-07-25T07:40:38.694Z,57.41
2023-07-25T07:43:08.620Z,56.74
2023-07-25T07:45:38.482Z,55.84
2023-07-25T07:48:08.331Z,55.99
2023-07-25T07:50:37.993Z,56.53
2023-07-25T07:53:08.205Z,56.19
2023-07-25T07:55:38.130Z,56.19
2023-07-25T07:58:08.038Z,55.89
2023-07-25T08:00:37.959Z,54.75
2023-07-25T08:03:07.930Z,55.20
2023-07-25T08:05:37.824Z,54.30
2023-07-25T08:08:09.402Z,54.30
2023-07-25T08:10:39.244Z,54.03
2023-07-25T08:13:09.071Z,54.67
2023-07-25T08:15:38.922Z,54.24
2023-07-25T08:18:08.795Z,54.93
2023-07-25T08:20:38.673Z,54.17
2023-07-25T08:23:08.538Z,54.17
2023-07-25T08:25:40.390Z,56.25
2023-07-25T08:28:10.909Z,55.78
2023-07-25T08:30:40.734Z,54.17
2023-07-25T08:33:10.694Z,55.38
2023-07-25T08:35:43.626Z,54.93
2023-07-25T08:38:13.352Z,53.76
2023-07-25T08:40:44.556Z,53.46
2023-07-25T08:43:16.631Z,52.61
2023-07-25T08:45:49.758Z,51.63
2023-07-25T08:48:24.355Z,52.28
2023-07-25T08:50:55.942Z,52.36
2023-07-25T08:53:26.842Z,52.36
2023-07-25T08:55:58.666Z,53.41
2023-07-25T08:58:29.795Z,53.58
2023-07-25T09:01:00.864Z,56.49
2023-07-25T09:03:31.715Z,58.34
2023-07-25T09:06:02.539Z,60.64
2023-07-25T09:08:32.364Z,61.93
2023-07-25T09:11:03.331Z,62.34
2023-07-25T09:13:33.531Z,63.07
2023-07-25T09:16:03.378Z,62.90
2023-07-25T09:18:33.456Z,64.09
2023-07-25T09:21:04.489Z,62.93
2023-07-25T09:23:34.608Z,63.81
2023-07-25T09:26:09.742Z,61.34
2023-07-25T09:28:53.748Z,59.47
2023-07-25T09:31:24.804Z,59.43
2023-07-25T09:33:56.240Z,54.73
2023-07-25T09:36:27.652Z,55.21
2023-07-25T09:38:59.333Z,54.03
2023-07-25T09:41:29.342Z,51.73
2023-07-25T09:44:03.802Z,49.57
2023-07-25T09:46:34.014Z,49.57
2023-07-25T09:49:04.012Z,51.04
2023-07-25T09:51:34.007Z,51.78
2023-07-25T09:54:06.896Z,49.20
2023-07-25T09:56:39.053Z,47.61
2023-07-25T09:59:08.826Z,46.58
2023-07-25T10:01:40.582Z,48.65
2023-07-25T10:04:11.358Z,48.26
2023-07-25T10:06:43.353Z,48.68
2023-07-25T10:09:15.496Z,47.49
2023-07-25T10:11:45.961Z,44.04
2023-07-25T10:14:17.690Z,44.04
2023-07-25T10:16:48.176Z,41.72
2023-07-25T10:19:17.770Z,42.13
2023-07-25T10:21:50.313Z,42.13
2023-07-25T10:24:23.048Z,41.28
2023-07-25T10:27:02.373Z,40.41
2023-07-25T10:29:38.115Z,40.63
2023-07-25T10:32:11.608Z,40.08
2023-07-25T10:34:50.621Z,39.53
2023-07-25T10:37:25.544Z,39.68
2023-07-25T10:40:12.736Z,38.68
2023-07-25T10:45:30.835Z,39.89
2023-07-25T10:48:02.072Z,40.04
2023-07-25T10:50:46.743Z,38.92
2023-07-25T10:53:17.821Z,37.68
2023-07-25T10:56:10.441Z,36.99
2023-07-25T10:58:42.762Z,36.99
2023-07-25T11:01:15.939Z,36.05
2023-07-25T11:03:46.258Z,35.67
2023-07-25T11:06:19.207Z,35.67
2023-07-25T11:08:49.662Z,36.46
2023-07-25T11:11:21.164Z,36.87
2023-07-25T11:13:50.874Z,36.94
2023-07-25T11:16:23.196Z,36.94
2023-07-25T11:18:53.884Z,37.29
2023-07-25T11:21:25.505Z,35.91
2023-07-25T11:24:05.833Z,36.40
2023-07-25T11:26:38.518Z,35.72
2023-07-25T11:29:14.064Z,34.04
2023-07-25T11:31:50.842Z,34.85
2023-07-25T11:34:21.696Z,35.75
2023-07-25T11:36:51.587Z,35.75
2023-07-25T11:39:21.879Z,34.81
2023-07-25T11:41:51.746Z,33.45
2023-07-25T11:44:22.006Z,35.14
2023-07-25T11:46:55.011Z,35.04
2023-07-25T11:49:41.272Z,33.74
2023-07-25T11:51:57.211Z,32.89
2023-07-25T11:54:27.484Z,34.92
2023-07-25T11:56:57.621Z,34.92
2023-07-25T11:59:29.118Z,34.07
2023-07-25T12:02:02.569Z,35.59
2023-07-25T12:04:32.415Z,34.82
2023-07-25T12:07:02.622Z,32.15
2023-07-25T12:09:32.548Z,32.18
2023-07-25T12:12:02.204Z,34.66
2023-07-25T12:14:31.779Z,34.66
2023-07-25T12:17:04.760Z,33.69
2023-07-25T12:19:34.643Z,31.83
2023-07-25T12:22:07.066Z,31.83
2023-07-25T12:24:42.862Z,33.29
2023-07-25T12:27:20.663Z,33.64
2023-07-25T12:29:50.582Z,34.12
2023-07-25T12:32:20.137Z,33.40
2023-07-25T12:34:50.203Z,32.24
2023-07-25T12:37:20.081Z,32.24
2023-07-25T12:39:49.921Z,32.27
2023-07-25T12:42:19.748Z,32.21
2023-07-25T12:44:49.590Z,31.77
2023-07-25T12:47:19.446Z,31.56
2023-07-25T12:49:49.277Z,30.48
2023-07-25T12:52:19.419Z,29.51
2023-07-25T12:54:49.236Z,30.25
2023-07-25T12:57:18.859Z,30.40
2023-07-25T12:59:48.675Z,31.29
2023-07-25T13:02:18.589Z,32.56
2023-07-25T13:04:48.439Z,33.29
2023-07-25T13:07:18.282Z,32.73
2023-07-25T13:09:47.826Z,33.18
2023-07-25T13:12:17.691Z,34.76
2023-07-25T13:14:47.532Z,34.85
2023-07-25T13:17:17.441Z,35.97
2023-07-25T13:19:47.580Z,34.13
2023-07-25T13:22:17.114Z,34.13
2023-07-25T13:24:47.001Z,33.49
2023-07-25T13:27:16.873Z,35.37
2023-07-25T13:29:46.778Z,36.40
2023-07-25T13:32:16.616Z,37.62
2023-07-25T13:34:47.404Z,38.02
2023-07-25T13:37:19.096Z,38.53
2023-07-25T13:39:49.010Z,38.11
2023-07-25T13:42:19.366Z,39.31
2023-07-25T13:44:49.186Z,40.96
2023-07-25T13:47:19.106Z,40.03
2023-07-25T13:49:48.982Z,38.66
2023-07-25T13:52:18.909Z,37.24
2023-07-25T13:54:48.863Z,35.66
2023-07-25T13:57:18.873Z,35.54
2023-07-25T13:59:48.753Z,34.63
2023-07-25T14:02:18.829Z,34.64
2023-07-25T14:04:49.445Z,35.13
2023-07-25T14:07:20.188Z,35.61
2023-07-25T14:09:50.137Z,34.75
2023-07-25T14:12:19.955Z,35.23
2023-07-25T14:14:49.932Z,35.98
2023-07-25T14:17:19.962Z,34.96
2023-07-25T14:19:49.846Z,37.04
2023-07-25T14:22:19.958Z,36.72
2023-07-25T14:24:49.809Z,36.54
2023-07-25T14:27:21.332Z,36.90
2023-07-25T14:29:51.891Z,37.48
2023-07-25T14:32:21.842Z,37.58
2023-07-25T14:34:52.392Z,37.40
2023-07-25T14:37:23.088Z,38.10
2023-07-25T14:39:53.680Z,37.78
2023-07-25T14:42:23.528Z,36.59
2023-07-25T14:44:53.378Z,36.16
2023-07-25T14:47:23.688Z,35.41
2023-07-25T14:49:53.641Z,34.57
2023-07-25T14:52:23.832Z,34.68
2023-07-25T14:54:53.676Z,35.02
2023-07-25T14:57:24.261Z,35.29
2023-07-25T14:59:54.115Z,34.53
2023-07-25T15:02:23.928Z,34.56
2023-07-25T15:04:53.763Z,35.12
2023-07-25T15:07:23.418Z,35.50
2023-07-25T15:09:53.262Z,35.50
2023-07-25T15:12:23.187Z,35.51
2023-07-25T15:14:53.241Z,34.52
2023-07-25T15:17:24.101Z,33.46
2023-07-25T15:20:02.246Z,32.97
2023-07-25T15:22:32.716Z,32.35
2023-07-25T15:25:02.590Z,32.10
2023-07-25T15:27:32.258Z,34.43
2023-07-25T15:30:02.445Z,34.43
2023-07-25T15:32:33.532Z,35.19
2023-07-25T15:35:03.988Z,36.34
2023-07-25T15:37:33.850Z,36.15
2023-07-25T15:40:04.371Z,36.14
2023-07-25T15:42:34.188Z,34.97
2023-07-25T15:45:04.472Z,35.28
2023-07-25T15:47:34.309Z,34.88
2023-07-25T15:50:06.745Z,35.32
2023-07-25T15:52:36.668Z,35.32
2023-07-25T15:55:08.080Z,35.26
2023-07-25T15:57:37.908Z,34.98
2023-07-25T16:00:10.955Z,34.98
2023-07-25T16:02:40.847Z,34.79
2023-07-25T16:05:10.849Z,35.07
2023-07-25T16:07:40.708Z,33.67
2023-07-25T16:10:10.896Z,33.87
2023-07-25T16:12:40.725Z,33.26
2023-07-25T16:15:11.287Z,34.02
2023-07-25T16:17:41.137Z,33.37
2023-07-25T16:20:11.228Z,33.96
2023-07-25T16:22:41.056Z,33.72
2023-07-25T16:25:10.719Z,33.72
2023-07-25T16:27:40.990Z,32.84
2023-07-25T16:30:11.209Z,33.92
2023-07-25T16:32:41.100Z,34.10
2023-07-25T16:35:12.345Z,33.63
2023-07-25T16:37:43.396Z,33.78
2023-07-25T16:40:14.658Z,33.77
2023-07-25T16:42:44.190Z,33.75
2023-07-25T16:45:15.597Z,34.70
2023-07-25T16:47:45.504Z,34.70
2023-07-25T16:50:17.216Z,34.47
2023-07-25T16:52:47.049Z,34.68
2023-07-25T16:55:17.374Z,35.20
2023-07-25T16:57:48.049Z,35.58
2023-07-25T17:00:17.893Z,35.59
2023-07-25T17:02:47.790Z,35.58
2023-07-25T17:05:17.703Z,34.48
2023-07-25T17:07:47.545Z,34.29
2023-07-25T17:10:17.445Z,34.17
2023-07-25T17:12:47.277Z,33.88
2023-07-25T17:15:16.807Z,33.51
2023-07-25T17:17:46.680Z,33.52
2023-07-25T17:20:17.069Z,33.64
2023-07-25T17:22:47.562Z,33.75
2023-07-25T17:25:17.543Z,33.89
2023-07-25T17:27:47.449Z,33.89
2023-07-25T17:30:17.769Z,33.94
2023-07-25T17:32:48.225Z,33.40
2023-07-25T17:35:27.921Z,32.85
2023-07-25T17:37:49.545Z,32.86
2023-07-25T17:40:21.360Z,32.86
2023-07-25T17:42:51.201Z,33.26
2023-07-25T17:45:21.163Z,33.26
2023-07-25T17:47:51.120Z,32.38
2023-07-25T17:50:22.690Z,33.28
2023-07-25T17:52:52.528Z,33.98
2023-07-25T17:55:22.232Z,33.10
2023-07-25T17:57:52.020Z,32.94
2023-07-25T18:00:22.042Z,31.92
2023-07-25T18:02:52.277Z,31.43
2023-07-25T18:05:22.359Z,33.41
2023-07-25T18:07:52.246Z,35.54
2023-07-25T18:10:22.189Z,38.47
2023-07-25T18:12:53.387Z,38.99
2023-07-25T18:15:23.239Z,39.87
2023-07-25T18:20:43.944Z,42.56
2023-07-25T18:23:14.021Z,42.49
2023-07-25T18:25:45.886Z,43.26
2023-07-25T18:28:16.180Z,43.73
2023-07-25T18:30:46.176Z,43.59
2023-07-25T18:33:16.616Z,43.73
2023-07-25T18:35:46.455Z,43.85
2023-07-25T18:38:16.197Z,44.50
2023-07-25T18:40:46.196Z,45.26
2023-07-25T18:43:20.234Z,45.99
2023-07-25T18:45:50.035Z,46.72
2023-07-25T18:48:20.081Z,45.86
2023-07-25T18:50:50.060Z,46.21
2023-07-25T18:53:19.978Z,46.14
2023-07-25T18:55:50.348Z,46.53
2023-07-25T18:58:20.097Z,46.91
2023-07-25T19:00:50.404Z,47.58
2023-07-25T19:03:20.661Z,47.79
2023-07-25T19:05:54.088Z,47.42
2023-07-25T19:08:24.412Z,47.97
2023-07-25T19:10:54.230Z,47.97
2023-07-25T19:13:24.239Z,48.25
2023-07-25T19:15:54.092Z,48.76
2023-07-25T19:18:24.165Z,48.76
2023-07-25T19:20:54.062Z,48.88
2023-07-25T19:23:27.112Z,49.65
2023-07-25T19:26:02.202Z,49.84
2023-07-25T19:28:32.124Z,49.97
2023-07-25T19:31:06.788Z,49.76
2023-07-25T19:33:36.716Z,50.08
2023-07-25T19:36:07.145Z,50.91
2023-07-25T19:38:36.973Z,50.63
2023-07-25T19:41:16.022Z,50.95
2023-07-25T19:43:46.320Z,51.56
2023-07-25T19:46:16.286Z,51.88
2023-07-25T19:48:46.166Z,51.78
2023-07-25T19:51:16.580Z,52.14
2023-07-25T19:53:47.998Z,51.94
2023-07-25T19:56:18.184Z,52.37
2023-07-25T19:58:48.029Z,53.65
2023-07-25T20:01:17.974Z,52.99
2023-07-25T20:03:48.039Z,52.79
2023-07-25T20:06:18.621Z,52.84
2023-07-25T20:08:48.165Z,53.09
2023-07-25T20:11:18.280Z,52.68
2023-07-25T20:13:48.097Z,52.82
2023-07-25T20:16:17.935Z,53.61
2023-07-25T20:18:48.103Z,53.52
2023-07-25T20:21:17.958Z,53.52
2023-07-25T20:23:47.507Z,53.93
2023-07-25T20:26:17.923Z,53.89
2023-07-25T20:28:47.833Z,53.89
2023-07-25T20:31:17.655Z,54.23
2023-07-25T20:33:47.234Z,54.16
2023-07-25T20:36:17.241Z,54.80
2023-07-25T20:38:47.739Z,55.17
2023-07-25T20:41:17.603Z,55.23
2023-07-25T20:43:47.183Z,54.90
2023-07-25T20:46:16.797Z,55.26
2023-07-25T20:48:46.689Z,55.41
2023-07-25T20:51:16.509Z,55.36
2023-07-25T20:53:46.352Z,55.07
2023-07-25T20:56:16.208Z,55.65
2023-07-25T20:58:46.029Z,55.39
2023-07-25T21:01:16.315Z,55.08
2023-07-25T21:03:46.188Z,54.92
2023-07-25T21:06:16.738Z,54.66
2023-07-25T21:08:46.656Z,55.17
2023-07-25T21:11:18.283Z,55.05
2023-07-25T21:13:48.824Z,55.79
2023-07-25T21:16:18.706Z,55.83
2023-07-25T21:18:48.867Z,55.87
2023-07-25T21:21:18.739Z,55.93
2023-07-25T21:23:49.552Z,55.87
2023-07-25T21:26:19.233Z,55.87
2023-07-25T21:28:49.514Z,57.05
2023-07-25T21:31:19.340Z,57.05
2023-07-25T21:33:49.320Z,56.54
2023-07-25T21:36:19.175Z,56.54
2023-07-25T21:38:49.122Z,56.63
2023-07-25T21:41:18.955Z,57.21
2023-07-25T21:43:48.783Z,57.85
2023-07-25T21:46:18.649Z,57.92
2023-07-25T21:48:48.547Z,57.07
2023-07-25T21:51:18.409Z,57.07
2023-07-25T21:53:48.263Z,57.32
2023-07-25T21:56:18.369Z,57.67
2023-07-25T21:58:48.344Z,57.63
2023-07-25T22:01:17.880Z,57.42
2023-07-25T22:03:50.789Z,57.69
2023-07-25T22:06:20.665Z,57.80
2023-07-25T22:08:50.585Z,57.68
2023-07-25T22:11:20.484Z,57.63
2023-07-25T22:13:50.734Z,57.96
2023-07-25T22:16:20.598Z,57.79
2023-07-25T22:18:50.768Z,58.34
2023-07-25T22:21:20.671Z,58.29
2023-07-25T22:23:50.267Z,58.40
2023-07-25T22:26:20.163Z,58.40
2023-07-25T22:28:50.012Z,59.01
2023-07-25T22:31:20.181Z,58.74
2023-07-25T22:33:50.056Z,58.82
2023-07-25T22:36:19.887Z,58.91
2023-07-25T22:38:49.812Z,59.06
2023-07-25T22:41:21.440Z,59.20
2023-07-25T22:43:51.456Z,59.08
2023-07-25T22:46:21.372Z,59.34
2023-07-25T22:48:51.324Z,59.46
2023-07-25T22:51:21.142Z,59.46
2023-07-25T22:53:50.988Z,59.20
2023-07-25T22:56:20.849Z,59.49
2023-07-25T22:58:50.726Z,59.18
2023-07-25T23:01:20.779Z,59.45
2023-07-25T23:03:50.664Z,60.28
2023-07-25T23:06:20.478Z,60.37
2023-07-25T23:08:50.411Z,60.65
2023-07-25T23:11:20.252Z,60.63
2023-07-25T23:13:50.106Z,60.89
2023-07-25T23:16:21.614Z,61.13
2023-07-25T23:18:51.207Z,61.27
2023-07-25T23:21:21.035Z,61.25
2023-07-25T23:23:50.921Z,61.51
2023-07-25T23:26:21.046Z,62.03
2023-07-25T23:28:50.942Z,62.03
2023-07-25T23:31:20.883Z,62.03
2023-07-25T23:33:50.804Z,62.20
2023-07-25T23:36:20.716Z,62.01
2023-07-25T23:38:50.549Z,62.55
2023-07-25T23:41:20.420Z,61.79
2023-07-25T23:43:50.615Z,61.63
2023-07-25T23:46:20.186Z,61.79
2023-07-25T23:48:50.089Z,60.99
2023-07-25T23:51:19.861Z,61.90
2023-07-25T23:53:49.761Z,62.26
2023-07-25T23:56:19.567Z,63.73
2023-07-25T23:58:49.682Z,64.77
